createdAt,value
2018-08-10T00:01:21.106Z,100974.41
2018-08-10T00:03:48.952Z,100975.97
2018-08-10T00:06:16.780Z,100974.86
2018-08-10T00:08:44.711Z,100974.00
2018-08-10T00:11:12.599Z,100974.86
2018-08-10T00:13:40.544Z,100976.36
2018-08-10T00:16:08.454Z,100983.18
2018-08-10T00:18:37.363Z,100982.47
2018-08-10T00:21:05.439Z,100974.68
2018-08-10T00:23:33.269Z,100985.21
2018-08-10T00:26:01.146Z,100975.70
2018-08-10T00:28:28.996Z,100980.58
2018-08-10T00:30:57.980Z,100992.17
2018-08-10T00:33:25.747Z,100992.58
2018-08-10T00:35:53.682Z,100988.55
2018-08-10T00:38:21.648Z,100996.22
2018-08-10T00:40:49.500Z,101009.87
2018-08-10T00:43:17.766Z,101014.19
2018-08-10T00:45:46.193Z,101021.38
2018-08-10T00:48:14.092Z,101029.90
2018-08-10T00:50:41.976Z,101048.07
2018-08-10T00:53:09.864Z,101061.86
2018-08-10T00:55:37.779Z,101058.45
2018-08-10T00:58:06.212Z,101045.13
2018-08-10T01:00:34.098Z,101003.17
2018-08-10T01:03:02.773Z,100971.58
2018-08-10T01:05:30.633Z,100967.90
2018-08-10T01:07:58.511Z,100974.76
2018-08-10T01:10:26.394Z,100967.95
2018-08-10T01:12:54.783Z,100961.59
2018-08-10T01:15:22.636Z,100960.16
2018-08-10T01:17:50.472Z,100959.55
2018-08-10T01:20:20.585Z,100962.13
2018-08-10T01:22:54.376Z,100954.17
2018-08-10T01:25:23.740Z,100951.87
2018-08-10T01:27:58.933Z,100954.94
2018-08-10T01:30:28.171Z,100951.27
2018-08-10T01:32:56.908Z,100949.34
2018-08-10T01:35:25.543Z,100950.45
2018-08-10T01:37:54.701Z,100947.16
2018-08-10T01:40:22.643Z,100946.00
2018-08-10T01:42:50.505Z,100951.36
2018-08-10T01:45:18.514Z,100944.12
2018-08-10T01:47:46.655Z,100948.87
2018-08-10T01:50:14.544Z,100956.34
2018-08-10T01:52:42.743Z,100956.63
2018-08-10T01:55:12.580Z,100960.91
2018-08-10T01:57:40.851Z,100958.59
2018-08-10T02:00:09.774Z,100965.89
2018-08-10T02:02:38.055Z,100963.97
2018-08-10T02:05:09.656Z,100963.97
2018-08-10T02:07:38.577Z,100961.53
2018-08-10T02:10:08.576Z,100964.36
2018-08-10T02:12:36.584Z,100968.15
2018-08-10T02:15:06.651Z,100967.05
2018-08-10T02:17:34.452Z,100972.04
2018-08-10T02:20:02.387Z,100974.09
2018-08-10T02:22:30.388Z,100969.45
2018-08-10T02:24:58.250Z,100988.84
2018-08-10T02:27:26.021Z,100993.20
2018-08-10T02:29:53.856Z,100987.11
2018-08-10T02:32:21.744Z,100982.52
2018-08-10T02:34:50.573Z,100980.55
2018-08-10T02:37:18.469Z,100973.82
2018-08-10T02:39:46.355Z,100966.48
2018-08-10T02:42:14.208Z,100973.63
2018-08-10T02:44:42.109Z,100971.59
2018-08-10T02:47:10.049Z,100973.45
2018-08-10T02:49:37.859Z,100976.72
2018-08-10T02:52:05.749Z,100975.60
2018-08-10T02:54:33.636Z,100965.17
2018-08-10T02:57:01.533Z,100972.66
2018-08-10T02:59:29.768Z,100977.29
2018-08-10T03:01:58.463Z,100972.50
2018-08-10T03:04:26.276Z,100977.03
2018-08-10T03:06:54.341Z,100962.30
2018-08-10T03:09:22.169Z,100962.17
2018-08-10T03:11:50.960Z,100967.27
2018-08-10T03:14:18.867Z,100965.89
2018-08-10T03:16:46.744Z,100964.96
2018-08-10T03:19:14.923Z,100964.70
2018-08-10T03:21:42.812Z,100962.51
2018-08-10T03:24:11.475Z,100960.43
2018-08-10T03:26:39.381Z,100958.70
2018-08-10T03:29:07.329Z,100964.83
2018-08-10T03:31:36.325Z,100955.30
2018-08-10T03:34:04.408Z,100954.02
2018-08-10T03:36:33.543Z,100955.08
2018-08-10T03:39:02.164Z,100950.89
2018-08-10T03:41:30.201Z,100945.72
2018-08-10T03:43:58.088Z,100956.44
2018-08-10T03:46:25.983Z,100948.02
2018-08-10T03:48:54.776Z,100950.13
2018-08-10T03:51:23.209Z,100948.02
2018-08-10T03:53:51.134Z,100946.20
2018-08-10T03:56:19.093Z,100944.98
2018-08-10T03:58:47.003Z,100954.91
2018-08-10T04:01:15.063Z,100948.85
2018-08-10T04:03:43.215Z,100941.45
2018-08-10T04:06:11.159Z,100934.92
2018-08-10T04:08:39.252Z,100939.67
2018-08-10T04:11:07.201Z,100937.16
2018-08-10T04:13:35.192Z,100933.94
2018-08-10T04:16:03.860Z,100950.72
2018-08-10T04:18:33.952Z,100958.78
2018-08-10T04:21:02.444Z,100970.53
2018-08-10T04:23:30.889Z,100967.97
2018-08-10T04:25:58.717Z,100963.70
2018-08-10T04:28:26.852Z,100954.54
2018-08-10T04:30:55.595Z,100939.30
2018-08-10T04:33:24.808Z,100933.64
2018-08-10T04:35:52.985Z,100934.25
2018-08-10T04:38:20.919Z,100937.25
2018-08-10T04:40:48.805Z,100930.91
2018-08-10T04:43:16.650Z,100929.88
2018-08-10T04:45:44.472Z,100933.58
2018-08-10T04:48:12.463Z,100943.35
2018-08-10T04:50:40.327Z,100935.59
2018-08-10T04:53:08.197Z,100949.97
2018-08-10T04:55:36.366Z,100955.89
2018-08-10T04:58:04.277Z,100961.25
2018-08-10T05:00:32.279Z,100954.94
2018-08-10T05:03:00.344Z,100952.27
2018-08-10T05:05:28.420Z,100948.08
2018-08-10T05:07:56.268Z,100943.55
2018-08-10T05:10:24.170Z,100937.06
2018-08-10T05:12:53.328Z,100936.38
2018-08-10T05:15:21.281Z,100927.35
2018-08-10T05:17:49.310Z,100927.09
2018-08-10T05:20:17.168Z,100923.98
2018-08-10T05:22:45.352Z,100928.60
2018-08-10T05:25:13.443Z,100932.14
2018-08-10T05:27:41.558Z,100937.28
2018-08-10T05:30:10.773Z,100926.06
2018-08-10T05:32:40.180Z,100928.05
2018-08-10T05:35:09.172Z,100927.00
2018-08-10T05:37:39.089Z,100926.78
2018-08-10T05:40:08.601Z,100921.69
2018-08-10T05:42:36.504Z,100926.18
2018-08-10T05:45:04.912Z,100921.42
2018-08-10T05:47:33.240Z,100923.89
2018-08-10T05:50:01.156Z,100927.30
2018-08-10T05:52:29.135Z,100930.19
2018-08-10T05:54:57.392Z,100925.16
2018-08-10T05:57:26.370Z,100920.73
2018-08-10T05:59:54.538Z,100912.95
2018-08-10T06:02:23.397Z,100912.95
2018-08-10T06:04:51.439Z,100907.75
2018-08-10T06:07:19.725Z,100913.42
2018-08-10T06:09:47.647Z,100904.94
2018-08-10T06:12:15.685Z,100908.98
2018-08-10T06:14:43.535Z,100910.16
2018-08-10T06:17:11.409Z,100907.37
2018-08-10T06:19:39.460Z,100908.99
2018-08-10T06:22:07.300Z,100918.63
2018-08-10T06:24:35.266Z,100919.27
2018-08-10T06:27:03.173Z,100919.03
2018-08-10T06:29:31.162Z,100920.53
2018-08-10T06:31:59.443Z,100917.37
2018-08-10T06:34:27.448Z,100911.64
2018-08-10T06:36:55.809Z,100906.20
2018-08-10T06:39:24.193Z,100898.68
2018-08-10T06:41:52.874Z,100886.61
2018-08-10T06:44:21.684Z,100886.86
2018-08-10T06:46:49.591Z,100883.58
2018-08-10T06:49:17.452Z,100878.11
2018-08-10T06:51:45.492Z,100876.52
2018-08-10T06:54:13.520Z,100877.39
2018-08-10T06:56:41.860Z,100880.45
2018-08-10T06:59:09.709Z,100878.36
2018-08-10T07:01:37.567Z,100882.70
2018-08-10T07:04:05.550Z,100879.92
2018-08-10T07:06:33.582Z,100882.38
2018-08-10T07:09:01.437Z,100876.91
2018-08-10T07:11:29.356Z,100874.36
2018-08-10T07:13:57.207Z,100874.13
2018-08-10T07:16:25.172Z,100878.15
2018-08-10T07:18:53.113Z,100885.99
2018-08-10T07:21:20.923Z,100899.77
2018-08-10T07:23:48.841Z,100895.15
2018-08-10T07:26:16.672Z,100893.08
2018-08-10T07:28:44.508Z,100892.84
2018-08-10T07:31:12.520Z,100891.14
2018-08-10T07:33:40.392Z,100887.11
2018-08-10T07:36:08.260Z,100880.63
2018-08-10T07:38:36.277Z,100880.77
2018-08-10T07:41:04.101Z,100879.41
2018-08-10T07:43:31.928Z,100872.84
2018-08-10T07:45:59.845Z,100867.80
2018-08-10T07:48:27.761Z,100865.02
2018-08-10T07:50:56.416Z,100859.63
2018-08-10T07:53:24.313Z,100856.37
2018-08-10T07:55:52.329Z,100854.52
2018-08-10T07:58:21.137Z,100857.81
2018-08-10T08:00:49.504Z,100868.44
2018-08-10T08:03:17.459Z,100875.51
2018-08-10T08:05:45.592Z,100869.12
2018-08-10T08:08:14.456Z,100877.06
2018-08-10T08:10:42.300Z,100876.55
2018-08-10T08:13:10.160Z,100886.45
2018-08-10T08:15:38.236Z,100894.50
2018-08-10T08:18:06.277Z,100886.78
2018-08-10T08:20:34.080Z,100881.63
2018-08-10T08:23:04.444Z,100877.45
2018-08-10T08:25:32.543Z,100875.10
2018-08-10T08:28:01.251Z,100855.78
2018-08-10T08:30:29.207Z,100854.55
2018-08-10T08:32:57.960Z,100857.91
2018-08-10T08:35:25.860Z,100856.95
2018-08-10T08:37:59.001Z,100857.00
2018-08-10T08:40:27.235Z,100840.36
2018-08-10T08:42:56.316Z,100831.42
2018-08-10T08:45:36.941Z,100830.34
2018-08-10T08:48:04.967Z,100832.22
2018-08-10T08:50:32.934Z,100826.52
2018-08-10T08:53:01.489Z,100814.23
2018-08-10T08:55:32.490Z,100812.18
2018-08-10T08:58:00.349Z,100799.00
2018-08-10T09:00:28.220Z,100793.13
2018-08-10T09:02:56.030Z,100775.58
2018-08-10T09:05:24.618Z,100773.03
2018-08-10T09:07:52.490Z,100773.62
2018-08-10T09:10:20.497Z,100776.64
2018-08-10T09:12:50.290Z,100778.52
2018-08-10T09:15:19.621Z,100772.61
2018-08-10T09:17:47.458Z,100764.72
2018-08-10T09:20:15.491Z,100769.66
2018-08-10T09:22:43.516Z,100770.73
2018-08-10T09:25:13.178Z,100785.36
2018-08-10T09:27:41.050Z,100785.21
2018-08-10T09:30:10.534Z,100784.38
2018-08-10T09:32:38.484Z,100781.45
2018-08-10T09:35:07.861Z,100781.72
2018-08-10T09:37:35.756Z,100778.33
2018-08-10T09:40:05.036Z,100783.03
2018-08-10T09:42:32.872Z,100775.03
2018-08-10T09:45:01.469Z,100774.22
2018-08-10T09:47:29.310Z,100759.66
2018-08-10T09:49:57.240Z,100755.86
2018-08-10T09:52:25.057Z,100748.80
2018-08-10T09:55:38.451Z,100745.11
2018-08-10T09:58:14.610Z,100741.56
2018-08-10T10:00:48.185Z,100746.11
2018-08-10T10:03:26.002Z,100746.47
2018-08-10T10:05:55.474Z,100742.83
2018-08-10T10:08:25.344Z,100738.80
2018-08-10T10:10:53.232Z,100738.17
2018-08-10T10:13:23.060Z,100740.41
2018-08-10T10:15:50.888Z,100731.91
2018-08-10T10:18:19.436Z,100737.01
2018-08-10T10:20:47.863Z,100730.33
2018-08-10T10:23:15.789Z,100710.34
2018-08-10T10:25:43.634Z,100698.73
2018-08-10T10:28:11.566Z,100693.88
2018-08-10T10:30:39.440Z,100690.52
2018-08-10T10:33:07.337Z,100680.16
2018-08-10T10:35:35.265Z,100681.59
2018-08-10T10:38:03.131Z,100691.58
2018-08-10T10:40:30.946Z,100693.05
2018-08-10T10:42:58.747Z,100692.30
2018-08-10T10:45:26.562Z,100686.23
2018-08-10T10:47:54.427Z,100692.97
2018-08-10T10:50:22.281Z,100684.52
2018-08-10T10:52:50.138Z,100681.41
2018-08-10T10:55:18.016Z,100673.00
2018-08-10T10:57:45.882Z,100665.22
2018-08-10T11:00:15.617Z,100671.72
2018-08-10T11:02:43.889Z,100674.28
2018-08-10T11:05:11.738Z,100662.95
2018-08-10T11:07:39.645Z,100657.11
2018-08-10T11:10:09.042Z,100651.06
2018-08-10T11:12:37.322Z,100647.05
2018-08-10T11:15:05.555Z,100636.36
2018-08-10T11:17:33.577Z,100636.60
2018-08-10T11:20:01.369Z,100640.92
2018-08-10T11:22:29.202Z,100639.35
2018-08-10T11:24:57.009Z,100642.09
2018-08-10T11:27:25.057Z,100643.41
2018-08-10T11:29:53.049Z,100648.69
2018-08-10T11:32:21.429Z,100649.18
2018-08-10T11:34:49.784Z,100642.83
2018-08-10T11:37:17.568Z,100642.81
2018-08-10T11:39:45.399Z,100629.52
2018-08-10T11:42:13.470Z,100625.91
2018-08-10T11:44:41.356Z,100613.06
2018-08-10T11:47:09.198Z,100602.95
2018-08-10T11:49:37.027Z,100595.21
2018-08-10T11:52:04.854Z,100575.06
2018-08-10T11:54:32.670Z,100558.34
2018-08-10T11:57:00.425Z,100536.73
2018-08-10T11:59:28.206Z,100511.00
2018-08-10T12:01:56.136Z,100508.16
2018-08-10T12:04:23.920Z,100513.44
2018-08-10T12:06:51.825Z,100523.50
2018-08-10T12:09:19.714Z,100524.50
2018-08-10T12:11:47.512Z,100522.16
2018-08-10T12:14:15.531Z,100518.96
2018-08-10T12:16:43.396Z,100523.20
2018-08-10T12:19:11.260Z,100527.47
2018-08-10T12:21:39.134Z,100538.67
2018-08-10T12:24:07.120Z,100571.88
2018-08-10T12:26:34.913Z,100581.02
2018-08-10T12:29:02.725Z,100594.31
2018-08-10T12:31:30.647Z,100609.95
2018-08-10T12:33:58.456Z,100599.14
2018-08-10T12:36:26.308Z,100584.25
2018-08-10T12:38:54.153Z,100577.03
2018-08-10T12:41:22.023Z,100558.22
2018-08-10T12:43:49.842Z,100538.09
2018-08-10T12:46:17.637Z,100527.52
2018-08-10T12:48:45.473Z,100515.77
2018-08-10T12:51:13.901Z,100501.33
2018-08-10T12:53:41.715Z,100515.00
2018-08-10T12:56:09.546Z,100515.30
2018-08-10T12:58:37.353Z,100512.70
2018-08-10T13:01:05.181Z,100515.30
2018-08-10T13:03:32.959Z,100511.17
2018-08-10T13:06:00.764Z,100491.77
2018-08-10T13:08:29.126Z,100473.41
2018-08-10T13:10:56.958Z,100456.19
2018-08-10T13:13:24.832Z,100454.80
2018-08-10T13:15:52.712Z,100449.95
2018-08-10T13:18:20.591Z,100436.66
2018-08-10T13:20:48.386Z,100436.00
2018-08-10T13:23:16.218Z,100436.94
2018-08-10T13:25:44.015Z,100429.48
2018-08-10T13:28:11.832Z,100439.19
2018-08-10T13:30:39.780Z,100437.64
2018-08-10T13:33:07.959Z,100452.23
2018-08-10T13:35:35.818Z,100448.31
2018-08-10T13:38:03.683Z,100429.48
2018-08-10T13:40:31.522Z,100413.66
2018-08-10T13:42:59.369Z,100421.77
2018-08-10T13:45:27.185Z,100415.33
2018-08-10T13:47:55.024Z,100397.51
2018-08-10T13:50:22.850Z,100405.78
2018-08-10T13:52:50.775Z,100414.43
2018-08-10T13:55:19.383Z,100420.88
2018-08-10T13:57:48.167Z,100404.20
2018-08-10T14:00:22.076Z,100389.77
2018-08-10T14:02:51.704Z,100389.77
2018-08-10T14:05:20.007Z,100395.14
2018-08-10T14:07:48.044Z,100407.25
2018-08-10T14:10:16.263Z,100399.87
2018-08-10T14:12:44.252Z,100393.80
2018-08-10T14:15:12.624Z,100399.80
2018-08-10T14:17:40.565Z,100395.64
2018-08-10T14:20:09.228Z,100385.77
2018-08-10T14:22:37.052Z,100388.83
2018-08-10T14:25:05.248Z,100379.41
2018-08-10T14:27:33.045Z,100360.00
2018-08-10T14:30:00.921Z,100351.03
2018-08-10T14:32:29.338Z,100337.22
2018-08-10T14:34:57.232Z,100340.60
2018-08-10T14:37:25.001Z,100342.31
2018-08-10T14:39:52.821Z,100347.05
2018-08-10T14:42:20.649Z,100335.50
2018-08-10T14:44:48.477Z,100329.34
2018-08-10T14:47:16.440Z,100317.23
2018-08-10T14:49:44.165Z,100312.21
2018-08-10T14:52:12.024Z,100307.81
2018-08-10T14:54:39.768Z,100304.70
2018-08-10T14:57:07.600Z,100302.50
2018-08-10T14:59:35.595Z,100299.32
2018-08-10T15:02:03.508Z,100294.43
2018-08-10T15:04:31.376Z,100295.28
2018-08-10T15:06:59.163Z,100283.73
2018-08-10T15:09:26.977Z,100278.55
2018-08-10T15:11:54.853Z,100272.81
2018-08-10T15:14:22.623Z,100269.92
2018-08-10T15:16:50.422Z,100269.55
2018-08-10T15:19:18.276Z,100260.37
2018-08-10T15:21:46.231Z,100253.20
2018-08-10T15:24:14.121Z,100250.39
2018-08-10T15:26:41.952Z,100251.57
2018-08-10T15:29:09.740Z,100251.08
2018-08-10T15:31:37.533Z,100240.67
2018-08-10T15:34:05.467Z,100242.22
2018-08-10T15:36:33.301Z,100233.72
2018-08-10T15:39:01.119Z,100225.97
2018-08-10T15:41:28.988Z,100229.22
2018-08-10T15:43:56.820Z,100222.00
2018-08-10T15:46:24.621Z,100222.36
2018-08-10T15:48:52.531Z,100213.98
2018-08-10T15:51:20.334Z,100218.52
2018-08-10T15:53:48.559Z,100215.33
2018-08-10T15:56:17.484Z,100205.61
2018-08-10T15:58:45.290Z,100214.55
2018-08-10T16:01:13.378Z,100205.61
2018-08-10T16:03:41.155Z,100194.71
2018-08-10T16:06:09.041Z,100193.20
2018-08-10T16:08:36.877Z,100183.42
2018-08-10T16:11:04.652Z,100195.70
2018-08-10T16:13:32.542Z,100191.80
2018-08-10T16:16:00.460Z,100176.66
2018-08-10T16:18:28.240Z,100177.29
2018-08-10T16:20:56.103Z,100177.09
2018-08-10T16:23:23.917Z,100176.23
2018-08-10T16:25:51.740Z,100169.52
2018-08-10T16:28:19.606Z,100171.58
2018-08-10T16:30:47.392Z,100165.83
2018-08-10T16:33:15.371Z,100161.63
2018-08-10T16:35:44.231Z,100160.64
2018-08-10T16:38:12.876Z,100146.83
2018-08-10T16:40:40.742Z,100150.56
2018-08-10T16:43:08.934Z,100155.45
2018-08-10T16:45:36.844Z,100151.41
2018-08-10T16:48:05.236Z,100148.59
2018-08-10T16:50:33.074Z,100136.47
2018-08-10T16:53:00.977Z,100130.42
2018-08-10T16:55:28.990Z,100124.19
2018-08-10T16:57:56.787Z,100133.29
2018-08-10T17:00:24.712Z,100129.44
2018-08-10T17:02:52.669Z,100116.64
2018-08-10T17:05:20.619Z,100108.04
2018-08-10T17:07:49.436Z,100107.41
2018-08-10T17:10:17.304Z,100102.02
2018-08-10T17:12:45.800Z,100102.35
2018-08-10T17:15:15.399Z,100100.19
2018-08-10T17:17:44.036Z,100086.20
2018-08-10T17:20:12.265Z,100093.16
2018-08-10T17:22:40.962Z,100094.27
2018-08-10T17:25:10.301Z,100095.84
2018-08-10T17:27:38.282Z,100085.57
2018-08-10T17:30:08.467Z,100094.99
2018-08-10T17:32:36.864Z,100083.02
2018-08-10T17:35:05.494Z,100074.30
2018-08-10T17:37:33.356Z,100082.88
2018-08-10T17:40:01.166Z,100074.61
2018-08-10T17:42:29.013Z,100070.05
2018-08-10T17:44:56.892Z,100062.62
2018-08-10T17:47:24.792Z,100069.36
2018-08-10T17:49:52.629Z,100062.27
2018-08-10T17:52:20.532Z,100062.62
2018-08-10T17:54:48.793Z,100064.14
2018-08-10T17:57:16.785Z,100064.64
2018-08-10T17:59:44.616Z,100065.69
2018-08-10T18:02:12.429Z,100056.58
2018-08-10T18:04:40.303Z,100050.87
2018-08-10T18:07:08.170Z,100059.25
2018-08-10T18:09:36.071Z,100048.98
2018-08-10T18:12:04.062Z,100052.12
2018-08-10T18:14:31.917Z,100042.70
2018-08-10T18:16:59.840Z,100043.72
2018-08-10T18:19:27.697Z,100043.17
2018-08-10T18:21:55.544Z,100037.07
2018-08-10T18:24:23.447Z,100042.56
2018-08-10T18:26:51.361Z,100045.26
2018-08-10T18:29:19.311Z,100040.01
2018-08-10T18:31:47.241Z,100041.66
2018-08-10T18:34:15.167Z,100034.94
2018-08-10T18:36:43.077Z,100034.38
2018-08-10T18:39:13.300Z,100037.24
2018-08-10T18:41:42.258Z,100036.39
2018-08-10T18:44:10.976Z,100036.89
2018-08-10T18:46:39.490Z,100040.23
2018-08-10T18:49:08.157Z,100039.22
2018-08-10T18:51:36.006Z,100038.34
2018-08-10T18:54:04.315Z,100028.08
2018-08-10T18:56:32.492Z,100027.03
2018-08-10T18:59:00.760Z,100023.78
2018-08-10T19:01:28.612Z,100026.09
2018-08-10T19:03:56.475Z,100022.71
2018-08-10T19:06:25.701Z,100024.28
2018-08-10T19:08:53.626Z,100023.39
2018-08-10T19:11:21.807Z,100024.91
2018-08-10T19:13:49.663Z,100029.57
2018-08-10T19:16:17.492Z,100023.14
2018-08-10T19:18:45.398Z,100018.48
2018-08-10T19:21:13.956Z,100018.98
2018-08-10T19:23:41.785Z,100016.29
2018-08-10T19:26:09.602Z,100021.67
2018-08-10T19:28:37.491Z,100015.57
2018-08-10T19:31:05.604Z,100015.57
2018-08-10T19:33:33.717Z,100008.16
2018-08-10T19:36:01.529Z,100013.90
2018-08-10T19:38:29.431Z,100012.20
2018-08-10T19:40:57.232Z,100004.26
2018-08-10T19:43:25.041Z,100001.02
2018-08-10T19:45:52.869Z,100001.19
2018-08-10T19:48:21.085Z,100000.99
2018-08-10T19:50:49.105Z,99989.69
2018-08-10T19:53:33.630Z,99993.53
2018-08-10T19:56:01.474Z,99998.48
2018-08-10T19:58:29.373Z,99994.88
2018-08-10T20:00:57.270Z,99995.34
2018-08-10T20:03:25.193Z,99998.63
2018-08-10T20:05:53.073Z,100001.75
2018-08-10T20:08:21.419Z,99996.47
2018-08-10T20:10:49.232Z,99997.75
2018-08-10T20:13:17.360Z,99988.08
2018-08-10T20:15:45.440Z,99989.85
2018-08-10T20:18:13.296Z,99987.75
2018-08-10T20:20:41.219Z,99988.83
2018-08-10T20:23:09.051Z,99987.09
2018-08-10T20:25:36.964Z,99984.79
2018-08-10T20:28:04.857Z,99987.77
2018-08-10T20:30:33.884Z,99982.33
2018-08-10T20:33:02.138Z,99981.63
2018-08-10T20:35:30.040Z,99979.66
2018-08-10T20:37:58.312Z,99975.43
2018-08-10T20:40:26.091Z,99978.53
2018-08-10T20:42:54.913Z,99976.83
2018-08-10T20:45:22.919Z,99972.23
2018-08-10T20:47:50.780Z,99972.89
2018-08-10T20:50:20.276Z,99975.30
2018-08-10T20:52:48.324Z,99971.06
2018-08-10T20:55:16.196Z,99977.63
2018-08-10T20:57:44.893Z,99982.02
2018-08-10T21:00:19.736Z,99975.99
2018-08-10T21:02:47.564Z,99979.61
2018-08-10T21:05:15.573Z,99980.23
2018-08-10T21:07:44.167Z,99977.06
2018-08-10T21:10:13.664Z,99970.27
2018-08-10T21:12:42.381Z,99972.70
2018-08-10T21:15:11.855Z,99970.51
2018-08-10T21:17:40.389Z,99968.59
2018-08-10T21:20:09.732Z,99964.86
2018-08-10T21:22:37.860Z,99968.36
2018-08-10T21:25:06.823Z,99967.46
2018-08-10T21:27:34.687Z,99974.49
2018-08-10T21:30:02.598Z,99971.52
2018-08-10T21:32:30.498Z,99983.02
2018-08-10T21:34:58.577Z,99973.05
2018-08-10T21:37:26.464Z,99986.30
2018-08-10T21:39:54.511Z,99983.89
2018-08-10T21:42:22.292Z,99984.45
2018-08-10T21:44:50.132Z,99987.04
2018-08-10T21:47:18.017Z,99981.50
2018-08-10T21:49:45.781Z,99979.25
2018-08-10T21:52:13.590Z,99983.82
2018-08-10T21:54:41.867Z,99984.79
2018-08-10T21:57:09.986Z,99978.06
2018-08-10T21:59:37.770Z,99981.98
2018-08-10T22:02:08.457Z,99988.86
2018-08-10T22:04:36.245Z,99994.39
2018-08-10T22:07:04.183Z,99999.92
2018-08-10T22:09:32.020Z,99998.63
2018-08-10T22:12:00.381Z,99994.30
2018-08-10T22:14:34.035Z,99996.61
2018-08-10T22:17:07.736Z,99989.27
2018-08-10T22:19:35.625Z,99995.20
2018-08-10T22:22:03.888Z,99993.61
2018-08-10T22:24:31.787Z,99988.41
2018-08-10T22:26:59.765Z,99984.89
2018-08-10T22:29:27.608Z,99992.45
2018-08-10T22:31:55.398Z,99978.25
2018-08-10T22:34:23.209Z,99978.63
2018-08-10T22:36:51.068Z,99979.48
2018-08-10T22:39:18.862Z,99983.92
2018-08-10T22:41:46.674Z,99981.98
2018-08-10T22:44:14.472Z,99985.90
2018-08-10T22:46:42.325Z,99973.64
2018-08-10T22:49:10.163Z,99978.66
2018-08-10T22:51:37.950Z,99969.97
2018-08-10T22:54:05.784Z,99975.98
2018-08-10T22:56:34.281Z,99986.31
2018-08-10T22:59:02.394Z,99983.27
2018-08-10T23:01:30.183Z,99988.44
2018-08-10T23:03:58.184Z,99975.66
2018-08-10T23:06:26.005Z,99970.08
2018-08-10T23:08:53.817Z,99967.88
2018-08-10T23:11:22.032Z,99969.11
2018-08-10T23:13:49.915Z,99972.27
2018-08-10T23:16:17.783Z,99978.14
2018-08-10T23:18:45.554Z,99975.13
2018-08-10T23:21:13.716Z,99961.61
2018-08-10T23:23:41.511Z,99961.72
2018-08-10T23:26:09.284Z,99962.61
2018-08-10T23:28:37.052Z,99954.06
2018-08-10T23:31:05.151Z,99962.23
2018-08-10T23:33:32.985Z,99965.39
2018-08-10T23:36:00.772Z,99973.20
2018-08-10T23:38:28.572Z,99969.36
2018-08-10T23:40:56.405Z,99969.25
2018-08-10T23:43:24.193Z,99974.51
2018-08-10T23:45:52.283Z,99970.09
2018-08-10T23:48:20.164Z,99964.49
2018-08-10T23:50:48.000Z,99970.58
2018-08-10T23:53:16.107Z,99972.42
2018-08-10T23:55:43.913Z,99973.30
2018-08-10T23:58:11.734Z,99970.84
